sensor_id;sensor_type;location;lat;lon;timestamp;pressure;altitude;pressure_sealevel;temperature;humidity
72794;BME280;63436;26.334;50.194;2022-12-07T00:00:30;61397.39;;;12.22;65.05
72794;BME280;63436;26.334;50.194;2022-12-07T00:02:56;61397.39;;;12.22;65.05
72794;BME280;63436;26.334;50.194;2022-12-07T00:05:22;61397.39;;;11.99;65.05
72794;BME280;63436;26.334;50.194;2022-12-07T00:07:52;61397.39;;;12.22;65.05
72794;BME280;63436;26.334;50.194;2022-12-07T00:10:12;61397.39;;;12.22;65.05
72794;BME280;63436;26.334;50.194;2022-12-07T00:12:38;61397.39;;;12.22;65.05
72794;BME280;63436;26.334;50.194;2022-12-07T00:15:04;61397.39;;;12.22;65.05
72794;BME280;63436;26.334;50.194;2022-12-07T00:17:29;61397.39;;;12.22;65.05
72794;BME280;63436;26.334;50.194;2022-12-07T00:19:54;61397.39;;;11.99;65.05
72794;BME280;63436;26.334;50.194;2022-12-07T00:22:19;61397.39;;;12.22;65.05
72794;BME280;63436;26.334;50.194;2022-12-07T00:24:45;61397.39;;;12.46;65.05
72794;BME280;63436;26.334;50.194;2022-12-07T00:27:10;61397.39;;;12.22;65.05
72794;BME280;63436;26.334;50.194;2022-12-07T00:29:36;61397.39;;;12.46;65.05
72794;BME280;63436;26.334;50.194;2022-12-07T00:32:02;61397.39;;;12.70;65.05
72794;BME280;63436;26.334;50.194;2022-12-07T00:34:32;61397.39;;;12.70;65.05
72794;BME280;63436;26.334;50.194;2022-12-07T00:36:54;61397.39;;;12.70;65.05
72794;BME280;63436;26.334;50.194;2022-12-07T00:39:18;61397.39;;;12.46;65.05
72794;BME280;63436;26.334;50.194;2022-12-07T00:41:43;61397.39;;;12.70;65.05
72794;BME280;63436;26.334;50.194;2022-12-07T00:44:09;61397.39;;;12.70;65.05
72794;BME280;63436;26.334;50.194;2022-12-07T00:46:34;61397.39;;;12.46;65.05
72794;BME280;63436;26.334;50.194;2022-12-07T00:49:00;61397.39;;;12.46;65.05
72794;BME280;63436;26.334;50.194;2022-12-07T00:51:26;61397.39;;;12.70;65.05
72794;BME280;63436;26.334;50.194;2022-12-07T00:53:52;61397.39;;;12.94;65.05
72794;BME280;63436;26.334;50.194;2022-12-07T00:56:18;61397.39;;;12.46;65.05
72794;BME280;63436;26.334;50.194;2022-12-07T00:58:42;61397.39;;;12.70;65.05
72794;BME280;63436;26.334;50.194;2022-12-07T01:01:08;61397.39;;;12.46;65.05
72794;BME280;63436;26.334;50.194;2022-12-07T01:03:33;61397.39;;;12.70;65.05
72794;BME280;63436;26.334;50.194;2022-12-07T01:05:58;61397.39;;;12.46;65.05
72794;BME280;63436;26.334;50.194;2022-12-07T01:08:24;61397.39;;;12.22;65.05
72794;BME280;63436;26.334;50.194;2022-12-07T01:10:49;61397.39;;;12.46;65.05
72794;BME280;63436;26.334;50.194;2022-12-07T01:13:14;61397.39;;;12.70;65.05
72794;BME280;63436;26.334;50.194;2022-12-07T01:15:39;61397.39;;;12.46;65.05
72794;BME280;63436;26.334;50.194;2022-12-07T01:18:04;61397.39;;;12.70;65.05
72794;BME280;63436;26.334;50.194;2022-12-07T01:20:30;61397.39;;;12.70;65.05
72794;BME280;63436;26.334;50.194;2022-12-07T01:22:55;61397.39;;;12.22;65.05
72794;BME280;63436;26.334;50.194;2022-12-07T01:25:21;61397.39;;;12.22;65.05
72794;BME280;63436;26.334;50.194;2022-12-07T01:27:46;61397.39;;;12.70;65.05
72794;BME280;63436;26.334;50.194;2022-12-07T01:30:17;61397.39;;;12.22;65.05
72794;BME280;63436;26.334;50.194;2022-12-07T01:32:36;61397.39;;;12.46;65.05
72794;BME280;63436;26.334;50.194;2022-12-07T01:35:03;61397.39;;;12.46;65.05
72794;BME280;63436;26.334;50.194;2022-12-07T01:37:27;61397.39;;;12.46;65.05
72794;BME280;63436;26.334;50.194;2022-12-07T01:39:53;61397.39;;;12.46;65.05
72794;BME280;63436;26.334;50.194;2022-12-07T01:42:19;61397.39;;;12.70;65.05
72794;BME280;63436;26.334;50.194;2022-12-07T01:47:09;61397.39;;;12.46;65.05
72794;BME280;63436;26.334;50.194;2022-12-07T01:49:39;61397.39;;;12.70;65.05
72794;BME280;63436;26.334;50.194;2022-12-07T01:52:09;61397.39;;;12.46;65.05
72794;BME280;63436;26.334;50.194;2022-12-07T01:54:25;61397.39;;;12.46;65.05
72794;BME280;63436;26.334;50.194;2022-12-07T01:56:52;61397.39;;;12.22;65.05
72794;BME280;63436;26.334;50.194;2022-12-07T01:59:17;61397.39;;;12.46;65.05
72794;BME280;63436;26.334;50.194;2022-12-07T02:01:41;61397.39;;;12.22;65.05
72794;BME280;63436;26.334;50.194;2022-12-07T02:04:06;61397.39;;;12.22;65.05
72794;BME280;63436;26.334;50.194;2022-12-07T02:06:32;61397.39;;;12.22;65.05
72794;BME280;63436;26.334;50.194;2022-12-07T02:08:57;61397.39;;;12.70;65.05
72794;BME280;63436;26.334;50.194;2022-12-07T02:11:24;61397.39;;;12.70;65.05
72794;BME280;63436;26.334;50.194;2022-12-07T02:13:48;61397.39;;;12.70;65.05
72794;BME280;63436;26.334;50.194;2022-12-07T02:16:23;61397.39;;;12.22;65.05
72794;BME280;63436;26.334;50.194;2022-12-07T02:18:48;61397.39;;;12.46;65.05
72794;BME280;63436;26.334;50.194;2022-12-07T02:21:08;61397.39;;;12.70;65.05
72794;BME280;63436;26.334;50.194;2022-12-07T02:23:40;61397.39;;;12.70;65.05
72794;BME280;63436;26.334;50.194;2022-12-07T02:28:26;61397.39;;;12.70;65.05
72794;BME280;63436;26.334;50.194;2022-12-07T02:30:47;61397.39;;;12.22;65.05
72794;BME280;63436;26.334;50.194;2022-12-07T02:33:15;61397.39;;;12.22;65.05
72794;BME280;63436;26.334;50.194;2022-12-07T02:35:40;61397.39;;;12.46;65.05
72794;BME280;63436;26.334;50.194;2022-12-07T02:38:04;61397.39;;;12.70;65.05
72794;BME280;63436;26.334;50.194;2022-12-07T02:40:31;61397.39;;;12.70;65.05
72794;BME280;63436;26.334;50.194;2022-12-07T02:42:57;61397.39;;;12.70;65.05
72794;BME280;63436;26.334;50.194;2022-12-07T02:45:20;61397.39;;;12.70;65.05
72794;BME280;63436;26.334;50.194;2022-12-07T02:47:44;61397.39;;;12.94;65.05
72794;BME280;63436;26.334;50.194;2022-12-07T02:50:08;61397.39;;;12.70;65.05
72794;BME280;63436;26.334;50.194;2022-12-07T02:52:33;61397.39;;;12.70;65.05
72794;BME280;63436;26.334;50.194;2022-12-07T02:54:59;61397.39;;;12.70;65.05
72794;BME280;63436;26.334;50.194;2022-12-07T02:57:37;61397.39;;;12.70;65.05
72794;BME280;63436;26.334;50.194;2022-12-07T03:00:00;61397.39;;;12.70;65.05
72794;BME280;63436;26.334;50.194;2022-12-07T03:02:23;61397.39;;;12.94;65.05
72794;BME280;63436;26.334;50.194;2022-12-07T03:04:47;61397.39;;;12.94;65.05
72794;BME280;63436;26.334;50.194;2022-12-07T03:07:14;61397.39;;;12.70;65.05
72794;BME280;63436;26.334;50.194;2022-12-07T03:09:38;61397.39;;;12.70;65.05
72794;BME280;63436;26.334;50.194;2022-12-07T03:12:04;61397.39;;;12.70;65.05
72794;BME280;63436;26.334;50.194;2022-12-07T03:14:25;61397.39;;;12.70;65.05
72794;BME280;63436;26.334;50.194;2022-12-07T03:16:50;61397.39;;;12.70;65.05
72794;BME280;63436;26.334;50.194;2022-12-07T03:19:15;61397.39;;;12.94;65.05
72794;BME280;63436;26.334;50.194;2022-12-07T03:21:43;61397.39;;;12.70;65.05
72794;BME280;63436;26.334;50.194;2022-12-07T03:24:10;61397.39;;;12.94;65.05
72794;BME280;63436;26.334;50.194;2022-12-07T03:26:38;61397.39;;;12.94;65.05
72794;BME280;63436;26.334;50.194;2022-12-07T03:29:00;61397.39;;;12.70;65.05
72794;BME280;63436;26.334;50.194;2022-12-07T03:31:23;61397.39;;;13.18;65.05
72794;BME280;63436;26.334;50.194;2022-12-07T03:33:49;61397.39;;;12.94;65.05
72794;BME280;63436;26.334;50.194;2022-12-07T03:36:15;61397.39;;;13.18;65.05
72794;BME280;63436;26.334;50.194;2022-12-07T03:38:40;61397.39;;;13.18;65.05
72794;BME280;63436;26.334;50.194;2022-12-07T03:41:06;61397.39;;;13.18;65.05
72794;BME280;63436;26.334;50.194;2022-12-07T03:43:28;61397.39;;;13.18;65.05
72794;BME280;63436;26.334;50.194;2022-12-07T03:46:00;61397.39;;;13.18;65.05
72794;BME280;63436;26.334;50.194;2022-12-07T03:48:22;61397.39;;;13.18;65.05
72794;BME280;63436;26.334;50.194;2022-12-07T03:50:50;61397.39;;;12.94;65.05
72794;BME280;63436;26.334;50.194;2022-12-07T03:53:13;61397.39;;;12.94;65.05
72794;BME280;63436;26.334;50.194;2022-12-07T03:55:36;61397.39;;;12.94;65.05
72794;BME280;63436;26.334;50.194;2022-12-07T03:58:02;61397.39;;;12.94;65.05
72794;BME280;63436;26.334;50.194;2022-12-07T04:00:26;61397.39;;;13.18;65.05
72794;BME280;63436;26.334;50.194;2022-12-07T04:02:52;61397.39;;;12.94;65.05
72794;BME280;63436;26.334;50.194;2022-12-07T04:05:16;61397.39;;;12.94;65.05
72794;BME280;63436;26.334;50.194;2022-12-07T04:07:42;61397.39;;;12.94;65.05
72794;BME280;63436;26.334;50.194;2022-12-07T04:10:08;61397.39;;;12.70;65.05
72794;BME280;63436;26.334;50.194;2022-12-07T04:12:32;61397.39;;;13.18;65.05
72794;BME280;63436;26.334;50.194;2022-12-07T04:14:59;61397.39;;;12.94;65.05
72794;BME280;63436;26.334;50.194;2022-12-07T04:17:23;61397.39;;;12.70;65.05
72794;BME280;63436;26.334;50.194;2022-12-07T04:19:49;61397.39;;;12.94;65.05
72794;BME280;63436;26.334;50.194;2022-12-07T04:22:16;61397.39;;;12.70;65.05
72794;BME280;63436;26.334;50.194;2022-12-07T04:24:40;61397.39;;;12.70;65.05
72794;BME280;63436;26.334;50.194;2022-12-07T04:27:06;61397.39;;;12.70;65.05
72794;BME280;63436;26.334;50.194;2022-12-07T04:29:31;61397.39;;;12.70;65.05
72794;BME280;63436;26.334;50.194;2022-12-07T04:31:56;61397.39;;;12.70;65.05
72794;BME280;63436;26.334;50.194;2022-12-07T04:34:21;61397.39;;;12.70;65.05
72794;BME280;63436;26.334;50.194;2022-12-07T04:36:47;61397.39;;;12.70;65.05
72794;BME280;63436;26.334;50.194;2022-12-07T04:39:20;61397.39;;;12.70;65.05
72794;BME280;63436;26.334;50.194;2022-12-07T04:41:37;61397.39;;;12.70;65.05
72794;BME280;63436;26.334;50.194;2022-12-07T04:44:04;61397.39;;;12.70;65.05
72794;BME280;63436;26.334;50.194;2022-12-07T04:46:29;61397.39;;;12.70;65.05
72794;BME280;63436;26.334;50.194;2022-12-07T04:48:54;61397.39;;;12.70;65.05
72794;BME280;63436;26.334;50.194;2022-12-07T04:51:21;61397.39;;;12.70;65.05
72794;BME280;63436;26.334;50.194;2022-12-07T04:53:43;61397.39;;;12.70;65.05
72794;BME280;63436;26.334;50.194;2022-12-07T04:56:09;61397.39;;;12.70;65.05
72794;BME280;63436;26.334;50.194;2022-12-07T04:58:35;61397.39;;;12.70;65.05
72794;BME280;63436;26.334;50.194;2022-12-07T05:01:00;61397.39;;;12.46;65.05
72794;BME280;63436;26.334;50.194;2022-12-07T05:03:26;61397.39;;;12.46;65.05
72794;BME280;63436;26.334;50.194;2022-12-07T05:05:51;61397.39;;;12.22;65.05
72794;BME280;63436;26.334;50.194;2022-12-07T05:08:17;61397.39;;;12.46;65.05
72794;BME280;63436;26.334;50.194;2022-12-07T05:10:43;61397.39;;;12.22;65.05
72794;BME280;63436;26.334;50.194;2022-12-07T05:13:07;61397.39;;;12.70;65.05
72794;BME280;63436;26.334;50.194;2022-12-07T05:15:32;61397.39;;;12.46;65.05
72794;BME280;63436;26.334;50.194;2022-12-07T05:17:58;61397.39;;;12.70;65.05
72794;BME280;63436;26.334;50.194;2022-12-07T05:20:23;61397.39;;;12.22;65.05
72794;BME280;63436;26.334;50.194;2022-12-07T05:22:49;61397.39;;;12.70;65.05
72794;BME280;63436;26.334;50.194;2022-12-07T05:25:15;61397.39;;;12.70;65.05
72794;BME280;63436;26.334;50.194;2022-12-07T05:27:41;61397.39;;;12.70;65.05
72794;BME280;63436;26.334;50.194;2022-12-07T05:30:07;61397.39;;;12.70;65.05
72794;BME280;63436;26.334;50.194;2022-12-07T05:32:30;61397.39;;;13.18;65.05
72794;BME280;63436;26.334;50.194;2022-12-07T05:34:56;61397.39;;;12.94;65.05
72794;BME280;63436;26.334;50.194;2022-12-07T05:37:21;61397.39;;;13.18;65.05
72794;BME280;63436;26.334;50.194;2022-12-07T05:39:46;61397.39;;;13.18;65.05
72794;BME280;63436;26.334;50.194;2022-12-07T05:42:12;61397.39;;;12.94;65.05
72794;BME280;63436;26.334;50.194;2022-12-07T05:44:38;61397.39;;;13.18;65.05
72794;BME280;63436;26.334;50.194;2022-12-07T05:47:03;61397.39;;;13.18;65.05
72794;BME280;63436;26.334;50.194;2022-12-07T05:49:29;61397.39;;;12.94;65.05
72794;BME280;63436;26.334;50.194;2022-12-07T05:51:54;61397.39;;;12.70;65.05
72794;BME280;63436;26.334;50.194;2022-12-07T05:54:20;61397.39;;;12.70;65.05
72794;BME280;63436;26.334;50.194;2022-12-07T05:56:46;61397.39;;;12.46;65.05
72794;BME280;63436;26.334;50.194;2022-12-07T05:59:16;61397.39;;;12.22;65.05
72794;BME280;63436;26.334;50.194;2022-12-07T06:01:36;61397.39;;;12.22;65.05
72794;BME280;63436;26.334;50.194;2022-12-07T06:04:02;61397.39;;;12.22;65.05
72794;BME280;63436;26.334;50.194;2022-12-07T06:06:26;61397.39;;;11.75;65.05
72794;BME280;63436;26.334;50.194;2022-12-07T06:08:52;61397.39;;;11.75;65.05
72794;BME280;63436;26.334;50.194;2022-12-07T06:11:18;61397.39;;;12.22;65.05
72794;BME280;63436;26.334;50.194;2022-12-07T06:13:43;61397.39;;;12.22;65.05
72794;BME280;63436;26.334;50.194;2022-12-07T06:16:09;61397.39;;;12.22;65.05
72794;BME280;63436;26.334;50.194;2022-12-07T06:18:35;61397.39;;;11.99;65.05
72794;BME280;63436;26.334;50.194;2022-12-07T06:21:00;61397.39;;;12.22;65.05
72794;BME280;63436;26.334;50.194;2022-12-07T06:23:25;61397.39;;;11.75;65.05
72794;BME280;63436;26.334;50.194;2022-12-07T06:25:51;61397.39;;;11.99;65.05
72794;BME280;63436;26.334;50.194;2022-12-07T06:28:16;61397.39;;;11.99;65.05
72794;BME280;63436;26.334;50.194;2022-12-07T06:30:41;61397.39;;;11.75;65.05
72794;BME280;63436;26.334;50.194;2022-12-07T06:33:07;61397.39;;;11.75;65.05
72794;BME280;63436;26.334;50.194;2022-12-07T06:35:33;61397.39;;;11.51;65.05
72794;BME280;63436;26.334;50.194;2022-12-07T06:37:58;61397.39;;;11.51;65.05
72794;BME280;63436;26.334;50.194;2022-12-07T06:40:29;61397.39;;;11.51;65.05
72794;BME280;63436;26.334;50.194;2022-12-07T06:42:49;61397.39;;;11.51;65.05
72794;BME280;63436;26.334;50.194;2022-12-07T06:45:14;61397.39;;;11.51;65.05
72794;BME280;63436;26.334;50.194;2022-12-07T06:47:40;61397.39;;;11.51;65.05
72794;BME280;63436;26.334;50.194;2022-12-07T06:50:06;61397.39;;;11.75;65.05
72794;BME280;63436;26.334;50.194;2022-12-07T06:52:31;61397.39;;;11.99;65.05
72794;BME280;63436;26.334;50.194;2022-12-07T06:54:57;61397.39;;;11.75;65.05
72794;BME280;63436;26.334;50.194;2022-12-07T06:57:22;61397.39;;;11.75;65.05
72794;BME280;63436;26.334;50.194;2022-12-07T06:59:47;61397.39;;;11.75;65.05
72794;BME280;63436;26.334;50.194;2022-12-07T07:02:12;61397.39;;;11.75;65.05
72794;BME280;63436;26.334;50.194;2022-12-07T07:04:37;61397.39;;;11.75;65.05
72794;BME280;63436;26.334;50.194;2022-12-07T07:07:02;61397.39;;;11.51;65.05
72794;BME280;63436;26.334;50.194;2022-12-07T07:09:28;61397.39;;;12.22;65.05
72794;BME280;63436;26.334;50.194;2022-12-07T07:11:53;61397.39;;;12.22;65.05
72794;BME280;63436;26.334;50.194;2022-12-07T07:14:19;61397.39;;;12.46;65.05
72794;BME280;63436;26.334;50.194;2022-12-07T07:16:45;61397.39;;;12.22;65.05
72794;BME280;63436;26.334;50.194;2022-12-07T07:19:10;61397.39;;;12.22;65.05
72794;BME280;63436;26.334;50.194;2022-12-07T07:21:36;61397.39;;;12.22;65.05
72794;BME280;63436;26.334;50.194;2022-12-07T07:24:01;61397.39;;;12.22;65.05
72794;BME280;63436;26.334;50.194;2022-12-07T07:26:26;61397.39;;;11.99;65.05
72794;BME280;63436;26.334;50.194;2022-12-07T07:28:51;61397.39;;;11.75;65.05
72794;BME280;63436;26.334;50.194;2022-12-07T07:31:18;61397.39;;;11.75;65.05
72794;BME280;63436;26.334;50.194;2022-12-07T07:33:44;61397.39;;;11.51;65.05
72794;BME280;63436;26.334;50.194;2022-12-07T07:36:08;61397.39;;;11.51;65.05
72794;BME280;63436;26.334;50.194;2022-12-07T07:38:34;61397.39;;;11.75;65.05
72794;BME280;63436;26.334;50.194;2022-12-07T07:40:59;61397.39;;;11.27;65.05
72794;BME280;63436;26.334;50.194;2022-12-07T07:43:24;61397.39;;;11.27;65.05
72794;BME280;63436;26.334;50.194;2022-12-07T07:45:49;61397.39;;;11.27;65.05
72794;BME280;63436;26.334;50.194;2022-12-07T07:48:20;61397.39;;;11.51;65.05
72794;BME280;63436;26.334;50.194;2022-12-07T07:50:41;61397.39;;;11.75;65.05
72794;BME280;63436;26.334;50.194;2022-12-07T07:53:06;61397.39;;;11.27;65.05
72794;BME280;63436;26.334;50.194;2022-12-07T07:55:32;61397.39;;;11.51;65.05
72794;BME280;63436;26.334;50.194;2022-12-07T07:57:57;61397.39;;;11.27;65.05
72794;BME280;63436;26.334;50.194;2022-12-07T08:00:23;61397.39;;;11.27;65.05
72794;BME280;63436;26.334;50.194;2022-12-07T08:02:48;61397.39;;;11.51;65.05
72794;BME280;63436;26.334;50.194;2022-12-07T08:05:13;61397.39;;;11.51;65.05
72794;BME280;63436;26.334;50.194;2022-12-07T08:07:39;61397.39;;;11.51;65.05
72794;BME280;63436;26.334;50.194;2022-12-07T08:10:06;61397.39;;;11.75;65.05
72794;BME280;63436;26.334;50.194;2022-12-07T08:12:30;61397.39;;;11.27;65.05
72794;BME280;63436;26.334;50.194;2022-12-07T08:14:55;61397.39;;;11.51;65.05
72794;BME280;63436;26.334;50.194;2022-12-07T08:17:21;61397.39;;;11.75;65.05
72794;BME280;63436;26.334;50.194;2022-12-07T08:19:46;61397.39;;;11.51;65.05
72794;BME280;63436;26.334;50.194;2022-12-07T08:22:12;61397.39;;;11.99;65.05
72794;BME280;63436;26.334;50.194;2022-12-07T08:24:37;61397.39;;;11.75;65.05
72794;BME280;63436;26.334;50.194;2022-12-07T08:27:03;61397.39;;;11.75;65.05
72794;BME280;63436;26.334;50.194;2022-12-07T08:29:28;61397.39;;;11.51;65.05
72794;BME280;63436;26.334;50.194;2022-12-07T08:31:55;61397.39;;;12.22;65.05
72794;BME280;63436;26.334;50.194;2022-12-07T08:34:20;61397.39;;;12.70;65.05
72794;BME280;63436;26.334;50.194;2022-12-07T08:36:45;61397.39;;;12.22;65.05
72794;BME280;63436;26.334;50.194;2022-12-07T08:39:10;61397.39;;;12.22;65.05
72794;BME280;63436;26.334;50.194;2022-12-07T08:41:36;61397.39;;;12.22;65.05
72794;BME280;63436;26.334;50.194;2022-12-07T08:44:01;61397.39;;;12.46;65.05
72794;BME280;63436;26.334;50.194;2022-12-07T08:46:30;61397.39;;;12.22;65.05
72794;BME280;63436;26.334;50.194;2022-12-07T08:49:01;61397.39;;;12.22;65.05
72794;BME280;63436;26.334;50.194;2022-12-07T08:51:17;61397.39;;;12.22;65.05
72794;BME280;63436;26.334;50.194;2022-12-07T08:53:43;61397.39;;;12.22;65.05
72794;BME280;63436;26.334;50.194;2022-12-07T08:56:08;61397.39;;;12.22;65.05
72794;BME280;63436;26.334;50.194;2022-12-07T08:58:33;61397.39;;;11.99;65.05
72794;BME280;63436;26.334;50.194;2022-12-07T09:00:58;61397.39;;;12.22;65.05
72794;BME280;63436;26.334;50.194;2022-12-07T09:03:24;61397.39;;;12.22;65.05
72794;BME280;63436;26.334;50.194;2022-12-07T09:05:49;61397.39;;;12.22;65.05
72794;BME280;63436;26.334;50.194;2022-12-07T09:08:14;61397.39;;;12.22;65.05
72794;BME280;63436;26.334;50.194;2022-12-07T09:10:40;61397.39;;;12.22;65.05
72794;BME280;63436;26.334;50.194;2022-12-07T09:13:05;61397.39;;;12.22;65.05
72794;BME280;63436;26.334;50.194;2022-12-07T09:15:31;61397.39;;;11.75;65.05
72794;BME280;63436;26.334;50.194;2022-12-07T09:17:57;61397.39;;;11.75;65.05
72794;BME280;63436;26.334;50.194;2022-12-07T09:20:21;61397.39;;;11.75;65.05
72794;BME280;63436;26.334;50.194;2022-12-07T09:22:46;61397.39;;;11.75;65.05
72794;BME280;63436;26.334;50.194;2022-12-07T09:25:12;61397.39;;;11.75;65.05
72794;BME280;63436;26.334;50.194;2022-12-07T09:27:37;61397.39;;;11.75;65.05
72794;BME280;63436;26.334;50.194;2022-12-07T09:30:03;61397.39;;;11.75;65.05
72794;BME280;63436;26.334;50.194;2022-12-07T09:32:28;61397.39;;;11.75;65.05
72794;BME280;63436;26.334;50.194;2022-12-07T09:34:53;61397.39;;;11.75;65.05
72794;BME280;63436;26.334;50.194;2022-12-07T09:37:19;61397.39;;;11.51;65.05
72794;BME280;63436;26.334;50.194;2022-12-07T09:39:49;61397.39;;;11.27;65.05
72794;BME280;63436;26.334;50.194;2022-12-07T09:42:23;61397.39;;;11.27;65.05
72794;BME280;63436;26.334;50.194;2022-12-07T09:44:36;61397.39;;;11.75;65.05
72794;BME280;63436;26.334;50.194;2022-12-07T09:47:01;61397.39;;;11.75;65.05
72794;BME280;63436;26.334;50.194;2022-12-07T09:49:28;61397.39;;;11.75;65.05
72794;BME280;63436;26.334;50.194;2022-12-07T09:52:00;61397.39;;;11.75;65.05
72794;BME280;63436;26.334;50.194;2022-12-07T09:54:17;61397.39;;;11.51;65.05
72794;BME280;63436;26.334;50.194;2022-12-07T09:56:42;61397.39;;;11.51;65.05
72794;BME280;63436;26.334;50.194;2022-12-07T09:59:13;61397.39;;;11.51;65.05
72794;BME280;63436;26.334;50.194;2022-12-07T10:01:33;61397.39;;;11.27;65.05
72794;BME280;63436;26.334;50.194;2022-12-07T10:04:09;61397.39;;;11.51;65.05
72794;BME280;63436;26.334;50.194;2022-12-07T10:06:23;61397.39;;;11.75;65.05
72794;BME280;63436;26.334;50.194;2022-12-07T10:08:49;61397.39;;;11.51;65.05
72794;BME280;63436;26.334;50.194;2022-12-07T10:11:14;61397.39;;;11.51;65.05
72794;BME280;63436;26.334;50.194;2022-12-07T10:13:40;61397.39;;;11.51;65.05
72794;BME280;63436;26.334;50.194;2022-12-07T10:16:06;61397.39;;;11.51;65.05
72794;BME280;63436;26.334;50.194;2022-12-07T10:18:36;61397.39;;;11.51;65.05
72794;BME280;63436;26.334;50.194;2022-12-07T10:21:04;61397.39;;;11.27;65.05
72794;BME280;63436;26.334;50.194;2022-12-07T10:23:24;61397.39;;;11.75;65.05
72794;BME280;63436;26.334;50.194;2022-12-07T10:25:51;61397.39;;;11.75;65.05
72794;BME280;63436;26.334;50.194;2022-12-07T10:28:14;61397.39;;;12.22;65.05
72794;BME280;63436;26.334;50.194;2022-12-07T10:30:47;61397.39;;;12.22;65.05
72794;BME280;63436;26.334;50.194;2022-12-07T10:33:08;61397.39;;;12.22;65.05
72794;BME280;63436;26.334;50.194;2022-12-07T10:35:28;61397.39;;;11.99;65.05
72794;BME280;63436;26.334;50.194;2022-12-07T10:37:55;61397.39;;;11.99;65.05
72794;BME280;63436;26.334;50.194;2022-12-07T10:40:28;61397.39;;;11.75;65.05
72794;BME280;63436;26.334;50.194;2022-12-07T10:43:05;61397.39;;;12.46;65.05
72794;BME280;63436;26.334;50.194;2022-12-07T10:45:15;61397.39;;;12.22;65.05
72794;BME280;63436;26.334;50.194;2022-12-07T10:47:43;61397.39;;;11.75;65.05
72794;BME280;63436;26.334;50.194;2022-12-07T10:50:17;61397.39;;;12.22;65.05
72794;BME280;63436;26.334;50.194;2022-12-07T10:52:38;61397.39;;;11.99;65.05
72794;BME280;63436;26.334;50.194;2022-12-07T10:55:02;61397.39;;;11.99;65.05
72794;BME280;63436;26.334;50.194;2022-12-07T10:57:27;61397.39;;;12.22;65.05
72794;BME280;63436;26.334;50.194;2022-12-07T10:59:53;61397.39;;;11.75;65.05
72794;BME280;63436;26.334;50.194;2022-12-07T11:02:19;61397.39;;;11.51;65.05
72794;BME280;63436;26.334;50.194;2022-12-07T11:04:40;61397.39;;;11.51;65.05
72794;BME280;63436;26.334;50.194;2022-12-07T11:07:04;61397.39;;;11.75;65.05
72794;BME280;63436;26.334;50.194;2022-12-07T11:09:41;61397.39;;;11.75;65.05
72794;BME280;63436;26.334;50.194;2022-12-07T11:11:53;61397.39;;;11.75;65.05
72794;BME280;63436;26.334;50.194;2022-12-07T11:14:20;61397.39;;;11.51;65.05
72794;BME280;63436;26.334;50.194;2022-12-07T11:16:50;61397.39;;;11.27;65.05
72794;BME280;63436;26.334;50.194;2022-12-07T11:19:16;61397.39;;;11.51;65.05
72794;BME280;63436;26.334;50.194;2022-12-07T11:21:37;61397.39;;;11.75;65.05
72794;BME280;63436;26.334;50.194;2022-12-07T11:24:01;61397.39;;;11.75;65.05
72794;BME280;63436;26.334;50.194;2022-12-07T11:26:33;61397.39;;;11.75;65.05
72794;BME280;63436;26.334;50.194;2022-12-07T11:28:59;61397.39;;;11.51;65.05
72794;BME280;63436;26.334;50.194;2022-12-07T11:31:17;61397.39;;;11.75;65.05
72794;BME280;63436;26.334;50.194;2022-12-07T11:33:42;61397.39;;;11.75;65.05
72794;BME280;63436;26.334;50.194;2022-12-07T11:36:10;61397.39;;;11.75;65.05
72794;BME280;63436;26.334;50.194;2022-12-07T11:38:33;61397.39;;;11.75;65.05
72794;BME280;63436;26.334;50.194;2022-12-07T11:40:58;61397.39;;;11.75;65.05
72794;BME280;63436;26.334;50.194;2022-12-07T11:43:22;61397.39;;;12.22;65.05
72794;BME280;63436;26.334;50.194;2022-12-07T11:45:47;61397.39;;;11.75;65.05
72794;BME280;63436;26.334;50.194;2022-12-07T11:48:14;61397.39;;;11.99;65.05
72794;BME280;63436;26.334;50.194;2022-12-07T11:50:37;61397.39;;;11.99;65.05
72794;BME280;63436;26.334;50.194;2022-12-07T11:53:03;61397.39;;;11.75;65.05
72794;BME280;63436;26.334;50.194;2022-12-07T11:55:29;61397.39;;;11.75;65.05
72794;BME280;63436;26.334;50.194;2022-12-07T11:57:54;61397.39;;;11.75;65.05
72794;BME280;63436;26.334;50.194;2022-12-07T12:00:17;61397.39;;;11.75;65.05
72794;BME280;63436;26.334;50.194;2022-12-07T12:02:46;61397.39;;;11.99;65.05
72794;BME280;63436;26.334;50.194;2022-12-07T12:05:13;61397.39;;;11.75;65.05
72794;BME280;63436;26.334;50.194;2022-12-07T12:07:34;61397.39;;;11.75;65.05
72794;BME280;63436;26.334;50.194;2022-12-07T12:10:02;61397.39;;;11.51;65.05
72794;BME280;63436;26.334;50.194;2022-12-07T12:12:37;61397.39;;;11.99;65.05
72794;BME280;63436;26.334;50.194;2022-12-07T12:14:59;61397.39;;;11.99;65.05
72794;BME280;63436;26.334;50.194;2022-12-07T12:17:28;61397.39;;;12.22;65.05
72794;BME280;63436;26.334;50.194;2022-12-07T12:19:42;61397.39;;;12.22;65.05
72794;BME280;63436;26.334;50.194;2022-12-07T12:22:12;61397.39;;;12.22;65.05
72794;BME280;63436;26.334;50.194;2022-12-07T12:24:32;61397.39;;;12.22;65.05
72794;BME280;63436;26.334;50.194;2022-12-07T12:27:01;61397.39;;;12.22;65.05
72794;BME280;63436;26.334;50.194;2022-12-07T12:29:23;61397.39;;;12.22;65.05
72794;BME280;63436;26.334;50.194;2022-12-07T12:34:31;61397.39;;;12.22;65.05
72794;BME280;63436;26.334;50.194;2022-12-07T12:36:45;61397.39;;;12.70;65.05
72794;BME280;63436;26.334;50.194;2022-12-07T12:39:11;61397.39;;;12.46;65.05
72794;BME280;63436;26.334;50.194;2022-12-07T12:43:54;61397.39;;;12.22;65.05
72794;BME280;63436;26.334;50.194;2022-12-07T12:46:36;61397.39;;;12.46;65.05
72794;BME280;63436;26.334;50.194;2022-12-07T12:48:45;61397.39;;;12.46;65.05